Stanford in the Vale, United Kingdom
Current Conditions -  °F | °C
As of 5:50 AM on Saturday 25 Oct 2014 (Local Time) from EGVN Reporting Station
Broken Clouds Broken Clouds  
Wind Chill:   Ceiling: 4200
Heat Index:   Visibility: 6mi
Dew Point:   Wind: 2mph
Humidity: 100%   Direction: 220°SW
Pressure: 30"   Gusts: NA
Location:  51.64°N, 1.51°W
Report Text: EGVN 250450Z 22002KT 9999 BKN042 07/07 Q1016 BLU NOSIG
Loading
Personal Weather Stations






























Interactive Weather Map
Tropical Storm Tracking
New forecast layout! Learn more

10-Day Weather Forecast

Advertisements
Track Severe Weather on mobile